createdAt,value
2018-04-27T00:00:51.036Z,6.30
2018-04-27T00:03:19.213Z,6.30
2018-04-27T00:05:47.363Z,6.20
2018-04-27T00:08:15.513Z,6.20
2018-04-27T00:10:44.452Z,6.10
2018-04-27T00:13:12.620Z,6.10
2018-04-27T00:15:40.792Z,6.10
2018-04-27T00:18:08.940Z,6.10
2018-04-27T00:20:37.109Z,6.00
2018-04-27T00:23:06.021Z,6.00
2018-04-27T00:25:34.197Z,6.00
2018-04-27T00:28:02.336Z,5.90
2018-04-27T00:30:30.510Z,5.90
2018-04-27T00:32:58.668Z,5.90
2018-04-27T00:35:26.851Z,5.80
2018-04-27T00:37:55.005Z,5.90
2018-04-27T00:40:23.176Z,5.80
2018-04-27T00:42:51.342Z,5.80
2018-04-27T00:45:19.523Z,5.80
2018-04-27T00:47:47.672Z,5.80
2018-04-27T00:50:15.849Z,5.70
2018-04-27T00:52:55.684Z,5.70
2018-04-27T00:55:23.862Z,5.70
2018-04-27T00:57:52.008Z,5.70
2018-04-27T01:00:20.189Z,5.70
2018-04-27T01:02:48.336Z,5.60
2018-04-27T01:05:16.507Z,5.60
2018-04-27T01:07:45.420Z,5.60
2018-04-27T01:10:13.600Z,5.60
2018-04-27T01:12:41.748Z,5.60
2018-04-27T01:15:09.938Z,5.60
2018-04-27T01:17:38.086Z,5.60
2018-04-27T01:20:06.269Z,5.60
2018-04-27T01:22:34.420Z,5.70
2018-04-27T01:25:02.592Z,5.60
2018-04-27T01:27:30.758Z,5.60
2018-04-27T01:29:58.936Z,5.60
2018-04-27T01:32:27.086Z,5.60
2018-04-27T01:34:55.264Z,5.60
2018-04-27T01:37:23.414Z,5.60
2018-04-27T01:39:51.587Z,5.60
2018-04-27T01:42:19.746Z,5.60
2018-04-27T01:44:48.685Z,5.60
2018-04-27T01:47:16.840Z,5.60
2018-04-27T01:49:45.021Z,5.70
2018-04-27T01:52:13.172Z,5.70
2018-04-27T01:54:41.353Z,5.70
2018-04-27T01:57:09.497Z,5.70
2018-04-27T01:59:37.675Z,5.70
2018-04-27T02:02:05.822Z,5.70
2018-04-27T02:04:33.996Z,5.70
2018-04-27T02:07:02.144Z,5.70
2018-04-27T02:09:30.314Z,5.70
2018-04-27T02:11:58.460Z,5.70
2018-04-27T02:14:26.641Z,5.70
2018-04-27T02:16:54.792Z,5.70
2018-04-27T02:19:22.953Z,5.80
2018-04-27T02:21:51.144Z,5.70
2018-04-27T02:24:19.295Z,5.70
2018-04-27T02:26:47.476Z,5.70
2018-04-27T02:29:15.633Z,5.70
2018-04-27T02:31:43.801Z,5.70
2018-04-27T02:34:11.948Z,5.70
2018-04-27T02:36:40.120Z,5.70
2018-04-27T02:39:08.268Z,5.60
2018-04-27T02:41:36.440Z,5.60
2018-04-27T02:44:04.580Z,5.60
2018-04-27T02:46:32.763Z,5.60
2018-04-27T02:49:00.935Z,5.60
2018-04-27T02:51:29.110Z,5.60
2018-04-27T02:53:58.085Z,5.60
2018-04-27T02:56:26.237Z,5.60
2018-04-27T02:58:54.390Z,5.60
2018-04-27T03:01:22.560Z,5.60
2018-04-27T03:03:50.708Z,5.60
2018-04-27T03:06:19.650Z,5.60
2018-04-27T03:08:47.800Z,5.60
2018-04-27T03:11:15.970Z,5.60
2018-04-27T03:13:44.121Z,5.60
2018-04-27T03:16:13.061Z,5.50
2018-04-27T03:18:41.215Z,5.50
2018-04-27T03:21:09.391Z,5.50
2018-04-27T03:23:37.561Z,5.50
2018-04-27T03:26:05.732Z,5.50
2018-04-27T03:28:33.880Z,5.50
2018-04-27T03:31:02.825Z,5.40
2018-04-27T03:33:30.972Z,5.40
2018-04-27T03:35:59.144Z,5.40
2018-04-27T03:38:27.292Z,5.40
2018-04-27T03:40:55.506Z,5.30
2018-04-27T03:43:23.658Z,5.40
2018-04-27T03:45:51.830Z,5.40
2018-04-27T03:48:19.972Z,5.40
2018-04-27T03:50:48.150Z,5.40
2018-04-27T03:53:16.300Z,5.40
2018-04-27T03:55:44.469Z,5.40
2018-04-27T03:58:12.616Z,5.40
2018-04-27T04:03:56.016Z,5.40
2018-04-27T04:06:24.184Z,5.30
2018-04-27T04:08:52.337Z,5.30
2018-04-27T04:11:20.508Z,5.30
2018-04-27T04:13:48.652Z,5.30
2018-04-27T04:16:16.840Z,5.30
2018-04-27T04:18:44.991Z,5.30
2018-04-27T04:21:13.161Z,5.30
2018-04-27T04:23:42.068Z,5.40
2018-04-27T04:26:10.247Z,5.40
2018-04-27T04:28:38.392Z,5.40
2018-04-27T04:31:06.566Z,5.50
2018-04-27T04:33:34.718Z,5.50
2018-04-27T04:36:02.888Z,5.50
2018-04-27T04:38:31.036Z,5.50
2018-04-27T04:40:59.206Z,5.50
2018-04-27T04:43:27.348Z,5.60
2018-04-27T04:45:55.496Z,5.60
2018-04-27T04:48:23.668Z,5.60
2018-04-27T04:50:51.818Z,5.60
2018-04-27T04:53:19.995Z,5.70
2018-04-27T04:55:48.152Z,5.70
2018-04-27T04:58:16.390Z,5.80
2018-04-27T05:00:44.536Z,5.80
2018-04-27T05:03:12.720Z,5.90
2018-04-27T05:05:40.864Z,6.00
2018-04-27T05:08:09.078Z,6.10
2018-04-27T05:10:37.261Z,6.20
2018-04-27T05:13:05.395Z,6.20
2018-04-27T05:15:33.544Z,6.30
2018-04-27T05:18:12.181Z,6.30
2018-04-27T05:20:40.336Z,6.40
2018-04-27T05:23:08.512Z,6.40
2018-04-27T05:25:36.691Z,6.50
2018-04-27T05:28:04.882Z,6.50
2018-04-27T05:30:33.042Z,6.60
2018-04-27T05:33:05.024Z,6.60
2018-04-27T05:35:33.171Z,6.70
2018-04-27T05:38:01.353Z,6.80
2018-04-27T05:40:29.531Z,6.90
2018-04-27T05:42:57.697Z,7.00
2018-04-27T05:45:25.836Z,7.10
2018-04-27T05:47:54.012Z,7.20
2018-04-27T05:50:22.168Z,7.30
2018-04-27T05:52:50.344Z,7.40
2018-04-27T05:55:18.507Z,7.60
2018-04-27T05:57:46.708Z,7.70
2018-04-27T06:00:14.889Z,7.80
2018-04-27T06:02:43.063Z,7.90
2018-04-27T06:05:11.212Z,8.00
2018-04-27T06:07:40.143Z,8.30
2018-04-27T06:10:08.339Z,8.30
2018-04-27T06:12:36.495Z,8.50
2018-04-27T06:15:04.641Z,8.60
2018-04-27T06:17:32.813Z,8.80
2018-04-27T06:20:00.962Z,8.90
2018-04-27T06:22:29.136Z,9.00
2018-04-27T06:24:57.284Z,9.10
2018-04-27T06:27:25.476Z,9.20
2018-04-27T06:29:53.623Z,9.30
2018-04-27T06:32:21.801Z,9.40
2018-04-27T06:34:49.948Z,9.40
2018-04-27T06:37:18.116Z,9.50
2018-04-27T06:39:46.266Z,9.60
2018-04-27T06:42:14.440Z,9.70
2018-04-27T06:44:42.596Z,9.90
2018-04-27T06:47:10.776Z,10.00
2018-04-27T06:49:38.967Z,10.10
2018-04-27T06:52:07.243Z,10.30
2018-04-27T06:54:35.768Z,10.40
2018-04-27T06:57:05.672Z,10.70
2018-04-27T06:59:33.900Z,10.70
2018-04-27T07:02:02.131Z,10.80
2018-04-27T07:04:30.372Z,11.00
2018-04-27T07:06:58.611Z,11.10
2018-04-27T07:09:26.801Z,11.20
2018-04-27T07:11:55.273Z,11.30
2018-04-27T07:14:23.840Z,11.40
2018-04-27T07:16:52.154Z,11.60
2018-04-27T07:19:20.364Z,11.90
2018-04-27T07:21:49.112Z,12.20
2018-04-27T07:24:17.331Z,12.40
2018-04-27T07:26:45.518Z,12.60
2018-04-27T07:29:13.803Z,12.80
2018-04-27T07:31:42.101Z,13.10
2018-04-27T07:34:10.517Z,13.30
2018-04-27T07:36:38.702Z,13.60
2018-04-27T07:39:07.961Z,13.90
2018-04-27T07:41:36.184Z,14.30
2018-04-27T07:44:04.532Z,14.40
2018-04-27T07:46:32.802Z,14.50
2018-04-27T07:49:01.027Z,14.60
2018-04-27T07:51:29.199Z,14.60
2018-04-27T07:53:57.391Z,14.90
2018-04-27T07:56:25.878Z,14.80
2018-04-27T07:58:54.200Z,15.00
2018-04-27T08:01:22.376Z,15.10
2018-04-27T08:03:50.588Z,15.20
2018-04-27T08:06:18.976Z,15.40
2018-04-27T08:08:48.056Z,15.80
2018-04-27T08:11:16.409Z,15.80
2018-04-27T08:13:44.604Z,16.00
2018-04-27T08:16:13.074Z,16.00
2018-04-27T08:18:41.310Z,16.20
2018-04-27T08:21:09.504Z,16.40
2018-04-27T08:23:37.716Z,16.40
2018-04-27T08:26:05.920Z,16.60
2018-04-27T08:28:34.162Z,16.70
2018-04-27T08:31:02.372Z,16.90
2018-04-27T08:33:30.576Z,16.90
2018-04-27T08:35:58.762Z,16.80
2018-04-27T08:38:26.961Z,16.80
2018-04-27T08:40:55.167Z,16.80
2018-04-27T08:43:24.148Z,16.80
2018-04-27T08:45:52.315Z,16.80
2018-04-27T08:48:20.591Z,16.60
2018-04-27T08:50:48.702Z,16.70
2018-04-27T08:53:16.927Z,16.60
2018-04-27T08:55:45.126Z,16.70
2018-04-27T08:58:13.329Z,16.60
2018-04-27T09:00:41.498Z,16.50
2018-04-27T09:03:09.723Z,16.60
2018-04-27T09:05:37.960Z,16.40
2018-04-27T09:08:06.153Z,16.10
2018-04-27T09:10:34.369Z,15.90
2018-04-27T09:13:02.549Z,15.80
2018-04-27T09:15:30.728Z,15.90
2018-04-27T09:17:59.004Z,15.90
2018-04-27T09:20:27.195Z,15.90
2018-04-27T09:22:55.373Z,15.90
2018-04-27T09:25:23.566Z,15.80
2018-04-27T09:27:51.745Z,15.60
2018-04-27T09:30:22.453Z,15.50
2018-04-27T09:32:50.620Z,15.50
2018-04-27T09:35:18.821Z,15.40
2018-04-27T09:37:47.003Z,15.40
2018-04-27T09:40:15.216Z,15.50
2018-04-27T09:42:43.382Z,15.50
2018-04-27T09:45:11.596Z,15.60
2018-04-27T09:47:39.761Z,15.60
2018-04-27T09:50:08.730Z,15.40
2018-04-27T09:52:36.875Z,15.30
2018-04-27T09:55:05.055Z,15.20
2018-04-27T09:57:33.281Z,15.20
2018-04-27T10:00:01.431Z,15.10
2018-04-27T10:02:29.596Z,15.00
2018-04-27T10:04:57.776Z,15.00
2018-04-27T10:07:25.947Z,14.90
2018-04-27T10:09:54.133Z,14.80
2018-04-27T10:12:22.297Z,14.70
2018-04-27T10:14:50.475Z,14.80
2018-04-27T10:17:18.635Z,14.90
2018-04-27T10:19:46.817Z,14.80
2018-04-27T10:22:14.993Z,14.70
2018-04-27T10:24:43.185Z,14.60
2018-04-27T10:27:11.345Z,14.50
2018-04-27T10:29:39.523Z,14.50
2018-04-27T10:32:07.672Z,14.70
2018-04-27T10:34:35.864Z,14.80
2018-04-27T10:37:04.017Z,15.00
2018-04-27T10:39:32.192Z,15.30
2018-04-27T10:42:00.355Z,15.50
2018-04-27T10:44:28.553Z,15.60
2018-04-27T10:46:56.737Z,15.70
2018-04-27T10:49:24.920Z,15.80
2018-04-27T10:51:54.604Z,15.70
2018-04-27T10:54:22.796Z,15.70
2018-04-27T10:56:50.977Z,15.70
2018-04-27T10:59:19.949Z,15.90
2018-04-27T11:01:48.104Z,15.90
2018-04-27T11:04:16.254Z,15.80
2018-04-27T11:06:44.436Z,15.50
2018-04-27T11:09:12.591Z,15.20
2018-04-27T11:11:40.911Z,15.10
2018-04-27T11:14:09.222Z,14.90
2018-04-27T11:16:37.452Z,14.80
2018-04-27T11:19:05.720Z,14.70
2018-04-27T11:21:33.933Z,14.60
2018-04-27T11:24:02.097Z,14.50
2018-04-27T11:26:30.346Z,14.40
2018-04-27T11:28:58.605Z,14.30
2018-04-27T11:31:26.791Z,14.30
2018-04-27T11:33:54.953Z,14.40
2018-04-27T11:36:23.123Z,14.70
2018-04-27T11:38:51.275Z,15.00
2018-04-27T11:41:20.283Z,15.40
2018-04-27T11:43:48.691Z,15.40
2018-04-27T11:46:16.923Z,15.70
2018-04-27T11:48:45.082Z,15.80
2018-04-27T11:51:14.061Z,16.00
2018-04-27T11:53:42.218Z,16.00
2018-04-27T11:56:10.403Z,16.00
2018-04-27T11:58:38.557Z,16.00
2018-04-27T12:01:06.769Z,15.90
2018-04-27T12:03:34.947Z,16.00
2018-04-27T12:06:03.143Z,16.10
2018-04-27T12:08:31.300Z,16.20
2018-04-27T12:11:00.250Z,16.30
2018-04-27T12:13:28.404Z,16.30
2018-04-27T12:15:56.592Z,16.40
2018-04-27T12:18:24.776Z,16.40
2018-04-27T12:20:53.000Z,16.60
2018-04-27T12:23:21.156Z,16.80
2018-04-27T12:25:50.260Z,16.70
2018-04-27T12:28:18.432Z,16.70
2018-04-27T12:30:46.617Z,16.50
2018-04-27T12:33:14.806Z,16.30
2018-04-27T12:35:42.983Z,16.20
2018-04-27T12:38:11.177Z,16.00
2018-04-27T12:40:39.376Z,16.00
2018-04-27T12:43:07.601Z,16.00
2018-04-27T12:45:35.800Z,16.00
2018-04-27T12:48:03.952Z,16.10
2018-04-27T12:50:32.127Z,16.40
2018-04-27T12:53:00.334Z,16.50
2018-04-27T12:55:28.615Z,16.60
2018-04-27T12:57:56.817Z,16.50
2018-04-27T13:00:25.392Z,16.40
2018-04-27T13:02:53.579Z,16.20
2018-04-27T13:05:21.932Z,16.00
2018-04-27T13:07:50.154Z,15.90
2018-04-27T13:10:18.447Z,15.90
2018-04-27T13:12:46.703Z,15.90
2018-04-27T13:15:14.871Z,15.90
2018-04-27T13:17:43.053Z,15.90
2018-04-27T13:20:11.208Z,15.90
2018-04-27T13:22:39.385Z,15.80
2018-04-27T13:25:07.548Z,15.80
2018-04-27T13:27:35.723Z,15.70
2018-04-27T13:30:03.889Z,15.70
2018-04-27T13:32:32.068Z,15.60
2018-04-27T13:35:00.228Z,15.60
2018-04-27T13:37:28.414Z,15.50
2018-04-27T13:39:56.595Z,15.50
2018-04-27T13:42:24.776Z,15.50
2018-04-27T13:44:52.936Z,15.50
2018-04-27T13:47:21.145Z,15.50
2018-04-27T13:49:49.312Z,15.50
2018-04-27T13:52:17.539Z,15.50
2018-04-27T13:54:45.718Z,15.60
2018-04-27T13:57:13.906Z,15.70
2018-04-27T13:59:42.101Z,15.80
2018-04-27T14:02:11.054Z,15.80
2018-04-27T14:04:39.225Z,15.80
2018-04-27T14:07:07.425Z,15.80
2018-04-27T14:09:35.592Z,15.80
2018-04-27T14:12:03.772Z,15.80
2018-04-27T14:14:31.928Z,15.70
2018-04-27T14:17:00.114Z,15.70
2018-04-27T14:19:28.268Z,15.70
2018-04-27T14:21:56.487Z,15.60
2018-04-27T14:24:24.639Z,15.60
2018-04-27T14:26:52.850Z,15.50
2018-04-27T14:29:21.077Z,15.50
2018-04-27T14:31:49.232Z,15.50
2018-04-27T14:34:17.392Z,15.40
2018-04-27T14:36:45.571Z,15.50
2018-04-27T14:39:13.717Z,15.40
2018-04-27T14:41:41.897Z,15.30
2018-04-27T14:44:10.060Z,15.30
2018-04-27T14:46:38.322Z,15.20
2018-04-27T14:49:06.484Z,15.20
2018-04-27T14:51:34.669Z,15.20
2018-04-27T14:54:02.843Z,15.30
2018-04-27T14:56:31.784Z,15.40
2018-04-27T14:58:59.944Z,15.30
2018-04-27T15:01:28.123Z,15.40
2018-04-27T15:03:57.335Z,15.40
2018-04-27T15:06:25.495Z,15.40
2018-04-27T15:08:53.687Z,15.30
2018-04-27T15:11:21.915Z,15.30
2018-04-27T15:13:52.000Z,15.20
2018-04-27T15:16:20.164Z,15.20
2018-04-27T15:18:48.544Z,15.20
2018-04-27T15:21:17.461Z,15.30
2018-04-27T15:23:53.603Z,15.30
2018-04-27T15:26:25.089Z,15.20
2018-04-27T15:28:53.312Z,15.20
2018-04-27T15:31:21.485Z,15.10
2018-04-27T15:33:55.865Z,15.10
2018-04-27T15:36:26.618Z,15.20
2018-04-27T15:38:54.841Z,15.20
2018-04-27T15:41:23.151Z,15.30
2018-04-27T15:43:52.136Z,15.20
2018-04-27T15:46:22.508Z,15.20
2018-04-27T15:48:50.705Z,15.20
2018-04-27T15:51:18.964Z,15.20
2018-04-27T15:53:47.140Z,15.20
2018-04-27T15:56:15.289Z,15.20
2018-04-27T15:58:43.467Z,15.10
2018-04-27T16:01:11.619Z,15.10
2018-04-27T16:03:39.792Z,15.10
2018-04-27T16:06:07.944Z,15.10
2018-04-27T16:08:36.249Z,15.10
2018-04-27T16:11:04.403Z,15.10
2018-04-27T16:16:32.945Z,15.00
2018-04-27T16:19:03.928Z,15.10
2018-04-27T16:21:32.077Z,15.10
2018-04-27T16:24:00.356Z,15.10
2018-04-27T16:26:30.074Z,15.10
2018-04-27T16:28:58.263Z,15.10
2018-04-27T16:31:27.285Z,15.10
2018-04-27T16:33:55.471Z,15.00
2018-04-27T16:36:23.616Z,14.90
2018-04-27T16:38:51.807Z,14.90
2018-04-27T16:41:19.982Z,14.90
2018-04-27T16:43:48.160Z,14.90
2018-04-27T16:46:16.325Z,14.80
2018-04-27T16:48:44.506Z,14.80
2018-04-27T16:51:12.656Z,14.80
2018-04-27T16:53:40.832Z,14.80
2018-04-27T16:56:09.757Z,14.60
2018-04-27T16:58:37.932Z,14.60
2018-04-27T17:01:06.075Z,14.60
2018-04-27T17:03:34.348Z,14.60
2018-04-27T17:06:02.444Z,14.50
2018-04-27T17:08:30.620Z,14.50
2018-04-27T17:10:58.787Z,14.50
2018-04-27T17:13:26.986Z,14.50
2018-04-27T17:15:55.136Z,14.40
2018-04-27T17:18:23.316Z,14.40
2018-04-27T17:20:51.507Z,14.30
2018-04-27T17:23:19.656Z,14.20
2018-04-27T17:25:47.836Z,14.20
2018-04-27T17:28:15.996Z,14.10
2018-04-27T17:30:44.961Z,14.00
2018-04-27T17:33:13.112Z,14.00
2018-04-27T17:35:41.295Z,14.00
2018-04-27T17:38:09.500Z,13.90
2018-04-27T17:40:38.416Z,13.80
2018-04-27T17:43:06.602Z,13.80
2018-04-27T17:45:34.759Z,13.70
2018-04-27T17:48:02.945Z,13.70
2018-04-27T17:50:31.137Z,13.60
2018-04-27T17:52:59.316Z,13.60
2018-04-27T17:55:27.469Z,13.50
2018-04-27T17:57:55.643Z,13.40
2018-04-27T18:00:23.864Z,13.40
2018-04-27T18:02:52.017Z,13.30
2018-04-27T18:05:20.193Z,13.20
2018-04-27T18:07:48.357Z,13.20
2018-04-27T18:10:16.624Z,13.10
2018-04-27T18:12:44.770Z,13.10
2018-04-27T18:15:12.982Z,13.00
2018-04-27T18:17:41.203Z,13.00
2018-04-27T18:20:09.342Z,12.90
2018-04-27T18:22:38.272Z,12.70
2018-04-27T18:25:07.220Z,12.60
2018-04-27T18:27:35.372Z,12.60
2018-04-27T18:30:03.977Z,12.50
2018-04-27T18:32:35.382Z,12.50
2018-04-27T18:35:03.549Z,12.40
2018-04-27T18:37:31.700Z,12.40
2018-04-27T18:39:59.891Z,12.30
2018-04-27T18:42:28.879Z,12.20
2018-04-27T18:44:57.012Z,12.20
2018-04-27T18:47:25.168Z,12.20
2018-04-27T18:49:53.345Z,12.10
2018-04-27T18:52:21.500Z,12.00
2018-04-27T18:54:49.746Z,12.00
2018-04-27T18:57:17.989Z,11.90
2018-04-27T18:59:47.031Z,11.80
2018-04-27T19:02:15.183Z,11.70
2018-04-27T19:04:43.473Z,11.70
2018-04-27T19:07:11.640Z,11.60
2018-04-27T19:09:40.071Z,11.60
2018-04-27T19:12:08.346Z,11.60
2018-04-27T19:14:36.537Z,11.50
2018-04-27T19:17:04.699Z,11.40
2018-04-27T19:19:33.012Z,11.40
2018-04-27T19:22:01.168Z,11.40
2018-04-27T19:24:29.420Z,11.40
2018-04-27T19:26:57.579Z,11.40
2018-04-27T19:29:25.783Z,11.40
2018-04-27T19:31:53.936Z,11.40
2018-04-27T19:34:22.133Z,11.40
2018-04-27T19:36:50.308Z,11.30
2018-04-27T19:39:18.520Z,11.30
2018-04-27T19:41:47.440Z,11.20
2018-04-27T19:44:15.616Z,11.20
2018-04-27T19:46:43.881Z,11.20
2018-04-27T19:49:12.121Z,11.20
2018-04-27T19:51:40.279Z,11.20
2018-04-27T19:54:08.461Z,11.20
2018-04-27T19:56:36.622Z,11.20
2018-04-27T19:59:04.820Z,11.20
2018-04-27T20:01:33.025Z,11.20
2018-04-27T20:04:01.219Z,11.20
2018-04-27T20:06:29.466Z,11.10
2018-04-27T20:08:58.429Z,11.00
2018-04-27T20:11:26.709Z,11.00
2018-04-27T20:13:54.961Z,11.00
2018-04-27T20:16:34.968Z,10.90
2018-04-27T20:19:03.166Z,10.80
2018-04-27T20:21:31.418Z,10.80
2018-04-27T20:24:06.334Z,10.70
2018-04-27T20:26:34.513Z,10.70
2018-04-27T20:29:02.697Z,10.70
2018-04-27T20:31:31.685Z,10.70
2018-04-27T20:33:59.855Z,10.70
2018-04-27T20:36:28.077Z,10.70
2018-04-27T20:38:56.346Z,10.70
2018-04-27T20:41:24.575Z,10.70
2018-04-27T20:43:54.584Z,10.60
2018-04-27T20:46:22.878Z,10.60
2018-04-27T20:48:51.828Z,10.50
2018-04-27T20:51:20.136Z,10.40
2018-04-27T20:53:51.261Z,10.40
2018-04-27T20:56:19.462Z,10.20
2018-04-27T20:58:48.427Z,10.10
2018-04-27T21:01:16.713Z,10.00
2018-04-27T21:03:44.888Z,10.00
2018-04-27T21:06:13.091Z,9.90
2018-04-27T21:08:41.232Z,9.80
2018-04-27T21:11:09.418Z,9.80
2018-04-27T21:13:37.702Z,9.70
2018-04-27T21:16:05.974Z,9.60
2018-04-27T21:18:34.913Z,9.50
2018-04-27T21:21:03.145Z,9.50
2018-04-27T21:23:31.321Z,9.50
2018-04-27T21:26:00.277Z,9.50
2018-04-27T21:28:32.016Z,9.40
2018-04-27T21:31:00.189Z,9.40
2018-04-27T21:36:34.633Z,9.40
2018-04-27T21:39:03.511Z,9.40
2018-04-27T21:44:35.608Z,9.40
2018-04-27T21:47:04.705Z,9.40
2018-04-27T21:49:32.918Z,9.50
2018-04-27T21:52:09.828Z,9.50
2018-04-27T21:54:38.034Z,9.50
2018-04-27T21:57:09.025Z,9.60
2018-04-27T21:59:49.665Z,9.70
2018-04-27T22:05:53.161Z,9.70
2018-04-27T22:08:23.829Z,9.80
2018-04-27T22:10:52.831Z,9.80
2018-04-27T22:13:20.993Z,9.70
2018-04-27T22:15:49.176Z,9.80
2018-04-27T22:18:17.327Z,9.80
2018-04-27T22:20:46.266Z,9.80
2018-04-27T22:23:14.429Z,9.90
2018-04-27T22:25:43.298Z,9.90
2018-04-27T22:28:11.490Z,9.90
2018-04-27T22:30:40.491Z,9.90
2018-04-27T22:33:15.380Z,9.90
2018-04-27T22:35:56.238Z,9.90
2018-04-27T22:41:35.468Z,9.90
2018-04-27T22:44:03.622Z,9.90
2018-04-27T22:46:32.528Z,9.80
2018-04-27T22:49:05.409Z,9.80
2018-04-27T22:51:39.127Z,9.80
2018-04-27T22:54:08.213Z,9.80
2018-04-27T22:56:54.161Z,9.80
2018-04-27T22:59:24.821Z,9.80
2018-04-27T23:01:57.924Z,9.80
2018-04-27T23:04:26.101Z,9.80
2018-04-27T23:06:54.253Z,9.80
2018-04-27T23:09:22.423Z,9.80
2018-04-27T23:11:51.333Z,9.90
2018-04-27T23:14:21.003Z,9.90
2018-04-27T23:16:49.161Z,9.90
2018-04-27T23:19:17.324Z,9.90
2018-04-27T23:21:51.232Z,10.00
2018-04-27T23:24:19.405Z,10.00
2018-04-27T23:26:48.429Z,10.00
2018-04-27T23:29:16.603Z,10.00
2018-04-27T23:31:48.485Z,10.00
2018-04-27T23:34:16.672Z,9.90
2018-04-27T23:36:44.821Z,9.90
2018-04-27T23:39:12.995Z,9.90
2018-04-27T23:41:41.135Z,9.90
2018-04-27T23:44:09.313Z,9.90
2018-04-27T23:46:37.480Z,9.80
2018-04-27T23:49:05.652Z,9.80
2018-04-27T23:51:33.804Z,9.80
2018-04-27T23:54:04.501Z,9.80
2018-04-27T23:56:48.324Z,9.80
2018-04-27T23:59:18.108Z,9.70
